sensor_id;sensor_type;location;lat;lon;timestamp;temperature;humidity
5796;DHT22;2924;51.458;7.046;2023-02-12T00:00:39;7.10;99.90
5796;DHT22;2924;51.458;7.046;2023-02-12T00:03:05;7.10;99.90
5796;DHT22;2924;51.458;7.046;2023-02-12T00:05:31;7.10;99.90
5796;DHT22;2924;51.458;7.046;2023-02-12T00:07:57;7.10;99.90
5796;DHT22;2924;51.458;7.046;2023-02-12T00:10:23;7.10;99.90
5796;DHT22;2924;51.458;7.046;2023-02-12T00:12:49;7.10;99.90
5796;DHT22;2924;51.458;7.046;2023-02-12T00:15:15;7.10;99.90
5796;DHT22;2924;51.458;7.046;2023-02-12T00:17:40;7.10;99.90
5796;DHT22;2924;51.458;7.046;2023-02-12T00:20:07;7.10;99.90
5796;DHT22;2924;51.458;7.046;2023-02-12T00:22:32;7.10;99.90
5796;DHT22;2924;51.458;7.046;2023-02-12T00:24:58;7.10;99.90
5796;DHT22;2924;51.458;7.046;2023-02-12T00:27:24;7.10;99.90
5796;DHT22;2924;51.458;7.046;2023-02-12T00:29:50;7.10;99.90
5796;DHT22;2924;51.458;7.046;2023-02-12T00:32:15;7.10;99.90
5796;DHT22;2924;51.458;7.046;2023-02-12T00:34:45;7.10;99.90
5796;DHT22;2924;51.458;7.046;2023-02-12T00:37:11;7.10;99.90
5796;DHT22;2924;51.458;7.046;2023-02-12T00:39:37;7.10;99.90
5796;DHT22;2924;51.458;7.046;2023-02-12T00:42:03;7.10;99.90
5796;DHT22;2924;51.458;7.046;2023-02-12T00:44:29;7.10;99.90
5796;DHT22;2924;51.458;7.046;2023-02-12T00:46:55;7.10;99.90
5796;DHT22;2924;51.458;7.046;2023-02-12T00:49:21;7.10;99.90
5796;DHT22;2924;51.458;7.046;2023-02-12T00:51:47;7.00;99.90
5796;DHT22;2924;51.458;7.046;2023-02-12T00:54:13;7.10;99.90
5796;DHT22;2924;51.458;7.046;2023-02-12T00:56:38;7.10;99.90
5796;DHT22;2924;51.458;7.046;2023-02-12T00:59:04;7.10;99.90
5796;DHT22;2924;51.458;7.046;2023-02-12T01:01:30;7.10;99.90
5796;DHT22;2924;51.458;7.046;2023-02-12T01:03:55;7.10;99.90
5796;DHT22;2924;51.458;7.046;2023-02-12T01:06:21;7.10;99.90
5796;DHT22;2924;51.458;7.046;2023-02-12T01:08:50;7.10;99.90
5796;DHT22;2924;51.458;7.046;2023-02-12T01:11:16;7.10;99.90
5796;DHT22;2924;51.458;7.046;2023-02-12T01:13:42;7.10;99.90
5796;DHT22;2924;51.458;7.046;2023-02-12T01:18:38;7.10;99.90
5796;DHT22;2924;51.458;7.046;2023-02-12T01:21:12;7.10;99.90
5796;DHT22;2924;51.458;7.046;2023-02-12T01:23:39;7.10;99.90
5796;DHT22;2924;51.458;7.046;2023-02-12T01:26:05;7.10;99.90
5796;DHT22;2924;51.458;7.046;2023-02-12T01:28:32;7.10;99.90
5796;DHT22;2924;51.458;7.046;2023-02-12T01:30:58;7.10;99.90
5796;DHT22;2924;51.458;7.046;2023-02-12T01:33:23;7.10;99.90
5796;DHT22;2924;51.458;7.046;2023-02-12T01:35:49;7.10;99.90
5796;DHT22;2924;51.458;7.046;2023-02-12T01:38:15;7.10;99.90
5796;DHT22;2924;51.458;7.046;2023-02-12T01:40:40;7.00;99.90
5796;DHT22;2924;51.458;7.046;2023-02-12T01:43:10;7.00;99.90
5796;DHT22;2924;51.458;7.046;2023-02-12T01:45:46;7.00;99.90
5796;DHT22;2924;51.458;7.046;2023-02-12T01:48:15;7.00;99.90
5796;DHT22;2924;51.458;7.046;2023-02-12T01:50:43;7.00;99.90
5796;DHT22;2924;51.458;7.046;2023-02-12T01:53:10;7.10;99.90
5796;DHT22;2924;51.458;7.046;2023-02-12T01:55:38;7.00;99.90
5796;DHT22;2924;51.458;7.046;2023-02-12T01:58:04;7.00;99.90
5796;DHT22;2924;51.458;7.046;2023-02-12T02:00:30;7.00;99.90
5796;DHT22;2924;51.458;7.046;2023-02-12T02:02:58;7.00;99.90
5796;DHT22;2924;51.458;7.046;2023-02-12T02:05:48;7.00;99.90
5796;DHT22;2924;51.458;7.046;2023-02-12T02:08:17;6.90;99.90
5796;DHT22;2924;51.458;7.046;2023-02-12T02:10:43;6.90;99.90
5796;DHT22;2924;51.458;7.046;2023-02-12T02:13:08;7.00;99.90
5796;DHT22;2924;51.458;7.046;2023-02-12T02:15:57;6.90;99.90
5796;DHT22;2924;51.458;7.046;2023-02-12T02:18:34;6.90;99.90
5796;DHT22;2924;51.458;7.046;2023-02-12T02:24:07;7.00;99.90
5796;DHT22;2924;51.458;7.046;2023-02-12T02:29:53;6.90;99.90
5796;DHT22;2924;51.458;7.046;2023-02-12T02:32:23;6.90;99.90
5796;DHT22;2924;51.458;7.046;2023-02-12T02:35:01;6.90;99.90
5796;DHT22;2924;51.458;7.046;2023-02-12T02:37:39;6.90;99.90
5796;DHT22;2924;51.458;7.046;2023-02-12T02:40:17;6.90;99.90
5796;DHT22;2924;51.458;7.046;2023-02-12T02:42:53;6.90;99.90
5796;DHT22;2924;51.458;7.046;2023-02-12T02:45:36;6.90;99.90
5796;DHT22;2924;51.458;7.046;2023-02-12T02:48:10;6.90;99.90
5796;DHT22;2924;51.458;7.046;2023-02-12T02:50:41;6.90;99.90
5796;DHT22;2924;51.458;7.046;2023-02-12T02:53:15;6.90;99.90
5796;DHT22;2924;51.458;7.046;2023-02-12T02:55:46;6.90;99.90
5796;DHT22;2924;51.458;7.046;2023-02-12T02:58:24;6.90;99.90
5796;DHT22;2924;51.458;7.046;2023-02-12T03:00:55;6.90;99.90
5796;DHT22;2924;51.458;7.046;2023-02-12T03:05:53;7.00;99.90
5796;DHT22;2924;51.458;7.046;2023-02-12T03:08:27;7.00;99.90
5796;DHT22;2924;51.458;7.046;2023-02-12T03:11:02;7.00;99.90
5796;DHT22;2924;51.458;7.046;2023-02-12T03:13:40;7.00;99.90
5796;DHT22;2924;51.458;7.046;2023-02-12T03:16:21;7.00;99.90
5796;DHT22;2924;51.458;7.046;2023-02-12T03:18:53;7.00;99.90
5796;DHT22;2924;51.458;7.046;2023-02-12T03:21:34;7.00;99.90
5796;DHT22;2924;51.458;7.046;2023-02-12T03:27:18;7.00;99.90
5796;DHT22;2924;51.458;7.046;2023-02-12T03:29:43;7.00;99.90
5796;DHT22;2924;51.458;7.046;2023-02-12T03:38:00;7.00;99.90
5796;DHT22;2924;51.458;7.046;2023-02-12T03:40:33;6.90;99.90
5796;DHT22;2924;51.458;7.046;2023-02-12T03:53:50;6.80;99.90
5796;DHT22;2924;51.458;7.046;2023-02-12T03:56:24;6.70;99.90
5796;DHT22;2924;51.458;7.046;2023-02-12T03:58:51;6.70;99.90
5796;DHT22;2924;51.458;7.046;2023-02-12T04:01:17;6.80;99.90
5796;DHT22;2924;51.458;7.046;2023-02-12T04:03:43;6.80;99.90
5796;DHT22;2924;51.458;7.046;2023-02-12T04:06:23;6.70;99.90
5796;DHT22;2924;51.458;7.046;2023-02-12T04:08:50;6.80;99.90
5796;DHT22;2924;51.458;7.046;2023-02-12T04:20:10;6.70;99.90
5796;DHT22;2924;51.458;7.046;2023-02-12T04:31:30;6.70;99.90
5796;DHT22;2924;51.458;7.046;2023-02-12T04:36:34;6.70;99.90
5796;DHT22;2924;51.458;7.046;2023-02-12T04:39:07;6.70;99.90
5796;DHT22;2924;51.458;7.046;2023-02-12T04:41:37;6.70;99.90
5796;DHT22;2924;51.458;7.046;2023-02-12T04:44:23;6.70;99.90
5796;DHT22;2924;51.458;7.046;2023-02-12T04:46:50;6.70;99.90
5796;DHT22;2924;51.458;7.046;2023-02-12T04:49:18;6.80;99.90
5796;DHT22;2924;51.458;7.046;2023-02-12T04:51:44;6.80;99.90
5796;DHT22;2924;51.458;7.046;2023-02-12T04:54:11;6.80;99.90
5796;DHT22;2924;51.458;7.046;2023-02-12T04:56:37;6.80;99.90
5796;DHT22;2924;51.458;7.046;2023-02-12T04:59:03;6.80;99.90
5796;DHT22;2924;51.458;7.046;2023-02-12T05:01:29;6.80;99.90
5796;DHT22;2924;51.458;7.046;2023-02-12T05:03:54;6.70;99.90
5796;DHT22;2924;51.458;7.046;2023-02-12T05:06:20;6.80;99.90
5796;DHT22;2924;51.458;7.046;2023-02-12T05:08:45;6.80;99.90
5796;DHT22;2924;51.458;7.046;2023-02-12T05:11:11;6.80;99.90
5796;DHT22;2924;51.458;7.046;2023-02-12T05:13:37;6.80;99.90
5796;DHT22;2924;51.458;7.046;2023-02-12T05:16:06;6.80;99.90
5796;DHT22;2924;51.458;7.046;2023-02-12T05:18:34;6.80;99.90
5796;DHT22;2924;51.458;7.046;2023-02-12T05:21:02;6.80;99.90
5796;DHT22;2924;51.458;7.046;2023-02-12T05:23:28;6.80;99.90
5796;DHT22;2924;51.458;7.046;2023-02-12T05:25:57;6.80;99.90
5796;DHT22;2924;51.458;7.046;2023-02-12T05:28:23;6.70;99.90
5796;DHT22;2924;51.458;7.046;2023-02-12T05:30:49;6.70;99.90
5796;DHT22;2924;51.458;7.046;2023-02-12T05:33:15;6.80;99.90
5796;DHT22;2924;51.458;7.046;2023-02-12T05:35:40;6.80;99.90
5796;DHT22;2924;51.458;7.046;2023-02-12T05:38:06;6.70;99.90
5796;DHT22;2924;51.458;7.046;2023-02-12T05:40:32;6.70;99.90
5796;DHT22;2924;51.458;7.046;2023-02-12T05:42:58;6.70;99.90
5796;DHT22;2924;51.458;7.046;2023-02-12T05:45:24;6.70;99.90
5796;DHT22;2924;51.458;7.046;2023-02-12T05:47:53;6.70;99.90
5796;DHT22;2924;51.458;7.046;2023-02-12T05:50:19;6.70;99.90
5796;DHT22;2924;51.458;7.046;2023-02-12T05:52:44;6.70;99.90
5796;DHT22;2924;51.458;7.046;2023-02-12T05:55:10;6.70;99.90
5796;DHT22;2924;51.458;7.046;2023-02-12T05:57:36;6.70;99.90
5796;DHT22;2924;51.458;7.046;2023-02-12T06:00:02;6.70;99.90
5796;DHT22;2924;51.458;7.046;2023-02-12T06:02:28;6.70;99.90
5796;DHT22;2924;51.458;7.046;2023-02-12T06:04:54;6.70;99.90
5796;DHT22;2924;51.458;7.046;2023-02-12T06:07:19;6.70;99.90
5796;DHT22;2924;51.458;7.046;2023-02-12T06:09:45;6.70;99.90
5796;DHT22;2924;51.458;7.046;2023-02-12T06:12:11;6.70;99.90
5796;DHT22;2924;51.458;7.046;2023-02-12T06:14:40;6.70;99.90
5796;DHT22;2924;51.458;7.046;2023-02-12T06:17:06;6.70;99.90
5796;DHT22;2924;51.458;7.046;2023-02-12T06:19:31;6.70;99.90
5796;DHT22;2924;51.458;7.046;2023-02-12T06:21:57;6.70;99.90
5796;DHT22;2924;51.458;7.046;2023-02-12T06:24:23;6.70;99.90
5796;DHT22;2924;51.458;7.046;2023-02-12T06:26:50;6.70;99.90
5796;DHT22;2924;51.458;7.046;2023-02-12T06:29:16;6.70;99.90
5796;DHT22;2924;51.458;7.046;2023-02-12T06:31:42;6.70;99.90
5796;DHT22;2924;51.458;7.046;2023-02-12T06:34:10;6.70;99.90
5796;DHT22;2924;51.458;7.046;2023-02-12T06:36:37;6.70;99.90
5796;DHT22;2924;51.458;7.046;2023-02-12T06:39:03;6.60;99.90
5796;DHT22;2924;51.458;7.046;2023-02-12T06:41:30;6.60;99.90
5796;DHT22;2924;51.458;7.046;2023-02-12T06:43:56;6.50;99.90
5796;DHT22;2924;51.458;7.046;2023-02-12T06:46:22;6.50;99.90
5796;DHT22;2924;51.458;7.046;2023-02-12T06:48:52;6.50;99.90
5796;DHT22;2924;51.458;7.046;2023-02-12T06:51:19;6.40;99.90
5796;DHT22;2924;51.458;7.046;2023-02-12T06:53:48;6.50;99.90
5796;DHT22;2924;51.458;7.046;2023-02-12T06:56:15;6.60;99.90
5796;DHT22;2924;51.458;7.046;2023-02-12T06:58:46;6.60;99.90
5796;DHT22;2924;51.458;7.046;2023-02-12T07:01:17;6.60;99.90
5796;DHT22;2924;51.458;7.046;2023-02-12T07:03:51;6.70;99.90
5796;DHT22;2924;51.458;7.046;2023-02-12T07:06:18;6.70;99.90
5796;DHT22;2924;51.458;7.046;2023-02-12T07:08:44;6.70;99.90
5796;DHT22;2924;51.458;7.046;2023-02-12T07:11:10;6.80;99.90
5796;DHT22;2924;51.458;7.046;2023-02-12T07:13:36;6.90;99.90
5796;DHT22;2924;51.458;7.046;2023-02-12T07:16:06;6.90;99.90
5796;DHT22;2924;51.458;7.046;2023-02-12T07:18:36;6.90;99.90
5796;DHT22;2924;51.458;7.046;2023-02-12T07:21:03;6.90;99.90
5796;DHT22;2924;51.458;7.046;2023-02-12T07:23:30;6.90;99.90
5796;DHT22;2924;51.458;7.046;2023-02-12T07:26:05;6.90;99.90
5796;DHT22;2924;51.458;7.046;2023-02-12T07:28:32;6.90;99.90
5796;DHT22;2924;51.458;7.046;2023-02-12T07:31:08;6.90;99.90
5796;DHT22;2924;51.458;7.046;2023-02-12T07:33:36;7.00;99.90
5796;DHT22;2924;51.458;7.046;2023-02-12T07:36:03;7.00;99.90
5796;DHT22;2924;51.458;7.046;2023-02-12T07:38:29;7.10;99.90
5796;DHT22;2924;51.458;7.046;2023-02-12T07:40:55;7.20;99.90
5796;DHT22;2924;51.458;7.046;2023-02-12T07:43:23;7.20;99.90
5796;DHT22;2924;51.458;7.046;2023-02-12T07:45:49;7.20;99.90
5796;DHT22;2924;51.458;7.046;2023-02-12T07:48:14;7.30;99.90
5796;DHT22;2924;51.458;7.046;2023-02-12T07:50:40;7.30;99.90
5796;DHT22;2924;51.458;7.046;2023-02-12T07:53:06;7.40;99.90
5796;DHT22;2924;51.458;7.046;2023-02-12T07:55:31;7.40;99.90
5796;DHT22;2924;51.458;7.046;2023-02-12T07:57:57;7.50;99.90
5796;DHT22;2924;51.458;7.046;2023-02-12T08:00:23;7.60;99.90
5796;DHT22;2924;51.458;7.046;2023-02-12T08:02:52;7.70;99.90
5796;DHT22;2924;51.458;7.046;2023-02-12T08:05:19;7.80;99.90
5796;DHT22;2924;51.458;7.046;2023-02-12T08:07:44;7.90;99.90
5796;DHT22;2924;51.458;7.046;2023-02-12T08:10:10;8.00;99.90
5796;DHT22;2924;51.458;7.046;2023-02-12T08:12:36;8.00;99.90
5796;DHT22;2924;51.458;7.046;2023-02-12T08:15:01;8.10;99.90
5796;DHT22;2924;51.458;7.046;2023-02-12T08:17:27;8.20;99.90
5796;DHT22;2924;51.458;7.046;2023-02-12T08:19:53;8.30;99.90
5796;DHT22;2924;51.458;7.046;2023-02-12T08:22:19;8.30;99.90
5796;DHT22;2924;51.458;7.046;2023-02-12T08:24:44;8.40;99.90
5796;DHT22;2924;51.458;7.046;2023-02-12T08:27:11;8.40;99.90
5796;DHT22;2924;51.458;7.046;2023-02-12T08:29:37;8.50;99.90
5796;DHT22;2924;51.458;7.046;2023-02-12T08:32:02;8.50;99.90
5796;DHT22;2924;51.458;7.046;2023-02-12T08:34:31;8.60;99.90
5796;DHT22;2924;51.458;7.046;2023-02-12T08:36:57;8.70;99.90
5796;DHT22;2924;51.458;7.046;2023-02-12T08:39:25;8.80;99.90
5796;DHT22;2924;51.458;7.046;2023-02-12T08:41:53;8.80;99.90
5796;DHT22;2924;51.458;7.046;2023-02-12T08:44:19;8.90;99.90
5796;DHT22;2924;51.458;7.046;2023-02-12T08:46:47;9.00;99.90
5796;DHT22;2924;51.458;7.046;2023-02-12T08:49:17;9.10;99.90
5796;DHT22;2924;51.458;7.046;2023-02-12T08:51:46;9.20;99.90
5796;DHT22;2924;51.458;7.046;2023-02-12T08:54:19;9.30;99.90
5796;DHT22;2924;51.458;7.046;2023-02-12T08:56:45;9.40;99.90
5796;DHT22;2924;51.458;7.046;2023-02-12T08:59:12;9.50;99.90
5796;DHT22;2924;51.458;7.046;2023-02-12T09:01:39;9.60;99.90
5796;DHT22;2924;51.458;7.046;2023-02-12T09:04:07;9.70;99.90
5796;DHT22;2924;51.458;7.046;2023-02-12T09:06:34;9.80;99.90
5796;DHT22;2924;51.458;7.046;2023-02-12T09:09:00;9.90;99.90
5796;DHT22;2924;51.458;7.046;2023-02-12T09:11:28;9.90;99.90
5796;DHT22;2924;51.458;7.046;2023-02-12T09:14:05;10.00;99.90
5796;DHT22;2924;51.458;7.046;2023-02-12T09:16:32;10.10;99.90
5796;DHT22;2924;51.458;7.046;2023-02-12T09:18:58;10.10;99.90
5796;DHT22;2924;51.458;7.046;2023-02-12T09:21:24;10.30;99.90
5796;DHT22;2924;51.458;7.046;2023-02-12T09:23:50;10.40;99.90
5796;DHT22;2924;51.458;7.046;2023-02-12T09:26:18;10.40;99.90
5796;DHT22;2924;51.458;7.046;2023-02-12T09:28:48;10.50;99.90
5796;DHT22;2924;51.458;7.046;2023-02-12T09:31:17;10.60;99.90
5796;DHT22;2924;51.458;7.046;2023-02-12T09:33:45;10.70;99.90
5796;DHT22;2924;51.458;7.046;2023-02-12T09:36:14;10.70;99.90
5796;DHT22;2924;51.458;7.046;2023-02-12T09:38:40;10.70;99.90
5796;DHT22;2924;51.458;7.046;2023-02-12T09:51:51;11.10;99.90
5796;DHT22;2924;51.458;7.046;2023-02-12T09:54:21;11.30;99.90
5796;DHT22;2924;51.458;7.046;2023-02-12T09:56:51;11.20;99.90
5796;DHT22;2924;51.458;7.046;2023-02-12T09:59:44;11.30;99.90
5796;DHT22;2924;51.458;7.046;2023-02-12T10:02:14;11.50;99.90
5796;DHT22;2924;51.458;7.046;2023-02-12T10:04:42;11.70;99.90
5796;DHT22;2924;51.458;7.046;2023-02-12T10:07:48;11.70;99.90
5796;DHT22;2924;51.458;7.046;2023-02-12T10:10:49;11.80;99.90
5796;DHT22;2924;51.458;7.046;2023-02-12T10:13:25;11.90;99.90
5796;DHT22;2924;51.458;7.046;2023-02-12T10:16:05;11.60;99.90
5796;DHT22;2924;51.458;7.046;2023-02-12T10:19:42;11.80;99.90
5796;DHT22;2924;51.458;7.046;2023-02-12T10:27:45;12.30;99.90
5796;DHT22;2924;51.458;7.046;2023-02-12T10:30:44;12.50;99.90
5796;DHT22;2924;51.458;7.046;2023-02-12T10:33:18;12.50;99.90
5796;DHT22;2924;51.458;7.046;2023-02-12T10:35:50;12.60;99.90
5796;DHT22;2924;51.458;7.046;2023-02-12T10:38:25;12.90;99.90
5796;DHT22;2924;51.458;7.046;2023-02-12T10:40:52;13.20;99.90
5796;DHT22;2924;51.458;7.046;2023-02-12T10:43:22;13.40;99.90
5796;DHT22;2924;51.458;7.046;2023-02-12T10:45:48;13.50;99.90
5796;DHT22;2924;51.458;7.046;2023-02-12T10:55:46;12.50;99.90
5796;DHT22;2924;51.458;7.046;2023-02-12T10:58:21;12.50;99.90
5796;DHT22;2924;51.458;7.046;2023-02-12T11:00:56;12.90;99.90
5796;DHT22;2924;51.458;7.046;2023-02-12T11:03:28;13.30;99.90
5796;DHT22;2924;51.458;7.046;2023-02-12T11:05:54;13.70;99.90
5796;DHT22;2924;51.458;7.046;2023-02-12T11:08:28;13.90;99.90
5796;DHT22;2924;51.458;7.046;2023-02-12T11:10:54;13.90;99.90
5796;DHT22;2924;51.458;7.046;2023-02-12T11:13:23;14.00;99.90
5796;DHT22;2924;51.458;7.046;2023-02-12T11:15:50;14.00;99.90
5796;DHT22;2924;51.458;7.046;2023-02-12T11:18:24;14.00;99.90
5796;DHT22;2924;51.458;7.046;2023-02-12T11:20:54;14.00;99.90
5796;DHT22;2924;51.458;7.046;2023-02-12T11:23:31;13.50;99.90
5796;DHT22;2924;51.458;7.046;2023-02-12T11:29:01;11.70;99.90
5796;DHT22;2924;51.458;7.046;2023-02-12T11:31:29;11.50;99.90
5796;DHT22;2924;51.458;7.046;2023-02-12T11:34:15;11.70;99.90
5796;DHT22;2924;51.458;7.046;2023-02-12T11:36:47;11.90;99.90
5796;DHT22;2924;51.458;7.046;2023-02-12T11:42:04;12.30;99.90
5796;DHT22;2924;51.458;7.046;2023-02-12T11:44:38;12.50;99.90
5796;DHT22;2924;51.458;7.046;2023-02-12T11:47:08;12.60;99.90
5796;DHT22;2924;51.458;7.046;2023-02-12T11:49:40;12.60;99.90
5796;DHT22;2924;51.458;7.046;2023-02-12T11:52:06;12.80;99.90
5796;DHT22;2924;51.458;7.046;2023-02-12T11:54:45;12.90;99.90
5796;DHT22;2924;51.458;7.046;2023-02-12T12:00:43;12.80;99.90
5796;DHT22;2924;51.458;7.046;2023-02-12T12:03:14;12.90;99.90
5796;DHT22;2924;51.458;7.046;2023-02-12T12:05:53;12.40;99.90
5796;DHT22;2924;51.458;7.046;2023-02-12T12:08:28;12.40;99.90
5796;DHT22;2924;51.458;7.046;2023-02-12T12:11:16;12.30;99.90
5796;DHT22;2924;51.458;7.046;2023-02-12T12:16:37;12.50;99.90
5796;DHT22;2924;51.458;7.046;2023-02-12T12:19:32;12.50;99.90
5796;DHT22;2924;51.458;7.046;2023-02-12T12:24:56;12.30;99.90
5796;DHT22;2924;51.458;7.046;2023-02-12T12:33:48;12.60;99.90
5796;DHT22;2924;51.458;7.046;2023-02-12T12:39:35;12.70;99.90
5796;DHT22;2924;51.458;7.046;2023-02-12T12:45:13;13.00;99.90
5796;DHT22;2924;51.458;7.046;2023-02-12T12:56:04;12.10;99.90
5796;DHT22;2924;51.458;7.046;2023-02-12T13:12:01;11.10;99.90
5796;DHT22;2924;51.458;7.046;2023-02-12T13:14:45;11.00;99.90
5796;DHT22;2924;51.458;7.046;2023-02-12T13:20:25;11.20;99.90
5796;DHT22;2924;51.458;7.046;2023-02-12T13:23:05;11.30;99.90
5796;DHT22;2924;51.458;7.046;2023-02-12T13:28:51;11.60;99.90
5796;DHT22;2924;51.458;7.046;2023-02-12T13:31:21;11.60;99.90
5796;DHT22;2924;51.458;7.046;2023-02-12T13:33:51;11.70;99.90
5796;DHT22;2924;51.458;7.046;2023-02-12T13:36:19;11.50;99.90
5796;DHT22;2924;51.458;7.046;2023-02-12T13:39:17;11.40;99.90
5796;DHT22;2924;51.458;7.046;2023-02-12T13:42:14;11.20;99.90
5796;DHT22;2924;51.458;7.046;2023-02-12T13:44:59;10.90;99.90
5796;DHT22;2924;51.458;7.046;2023-02-12T13:50:26;10.60;99.90
5796;DHT22;2924;51.458;7.046;2023-02-12T13:53:29;10.70;99.90
5796;DHT22;2924;51.458;7.046;2023-02-12T13:56:06;10.40;99.90
5796;DHT22;2924;51.458;7.046;2023-02-12T14:01:10;10.40;99.90
5796;DHT22;2924;51.458;7.046;2023-02-12T14:03:38;10.30;99.90
5796;DHT22;2924;51.458;7.046;2023-02-12T14:06:20;10.50;99.90
5796;DHT22;2924;51.458;7.046;2023-02-12T14:08:52;10.40;99.90
5796;DHT22;2924;51.458;7.046;2023-02-12T14:11:31;10.30;99.90
5796;DHT22;2924;51.458;7.046;2023-02-12T14:14:00;10.50;99.90
5796;DHT22;2924;51.458;7.046;2023-02-12T14:22:01;10.70;99.90
5796;DHT22;2924;51.458;7.046;2023-02-12T14:27:20;10.70;99.90
5796;DHT22;2924;51.458;7.046;2023-02-12T14:30:38;10.50;99.90
5796;DHT22;2924;51.458;7.046;2023-02-12T14:43:40;10.40;99.90
5796;DHT22;2924;51.458;7.046;2023-02-12T14:49:22;10.30;99.90
5796;DHT22;2924;51.458;7.046;2023-02-12T14:54:31;10.00;99.90
5796;DHT22;2924;51.458;7.046;2023-02-12T14:57:02;9.90;99.90
5796;DHT22;2924;51.458;7.046;2023-02-12T14:59:35;9.90;99.90
5796;DHT22;2924;51.458;7.046;2023-02-12T15:02:04;9.60;99.90
5796;DHT22;2924;51.458;7.046;2023-02-12T15:04:33;9.60;99.90
5796;DHT22;2924;51.458;7.046;2023-02-12T15:07:09;9.50;99.90
5796;DHT22;2924;51.458;7.046;2023-02-12T15:09:59;9.60;99.90
5796;DHT22;2924;51.458;7.046;2023-02-12T15:12:55;9.70;99.90
5796;DHT22;2924;51.458;7.046;2023-02-12T15:15:30;9.70;99.90
5796;DHT22;2924;51.458;7.046;2023-02-12T15:18:06;9.80;99.90
5796;DHT22;2924;51.458;7.046;2023-02-12T15:20:45;9.80;99.90
5796;DHT22;2924;51.458;7.046;2023-02-12T15:23:40;9.80;99.90
5796;DHT22;2924;51.458;7.046;2023-02-12T15:26:15;9.80;99.90
5796;DHT22;2924;51.458;7.046;2023-02-12T15:28:41;9.80;99.90
5796;DHT22;2924;51.458;7.046;2023-02-12T15:31:08;9.70;99.90
5796;DHT22;2924;51.458;7.046;2023-02-12T15:33:39;9.60;99.90
5796;DHT22;2924;51.458;7.046;2023-02-12T15:36:08;9.50;99.90
5796;DHT22;2924;51.458;7.046;2023-02-12T15:38:36;9.50;99.90
5796;DHT22;2924;51.458;7.046;2023-02-12T15:41:03;9.50;99.90
5796;DHT22;2924;51.458;7.046;2023-02-12T15:43:34;9.50;99.90
5796;DHT22;2924;51.458;7.046;2023-02-12T15:46:04;9.50;99.90
5796;DHT22;2924;51.458;7.046;2023-02-12T15:48:36;9.60;99.90
5796;DHT22;2924;51.458;7.046;2023-02-12T15:51:27;9.50;99.90
5796;DHT22;2924;51.458;7.046;2023-02-12T15:53:55;9.50;99.90
5796;DHT22;2924;51.458;7.046;2023-02-12T15:56:22;9.50;99.90
5796;DHT22;2924;51.458;7.046;2023-02-12T16:01:17;9.50;99.90
5796;DHT22;2924;51.458;7.046;2023-02-12T16:03:43;9.30;99.90
5796;DHT22;2924;51.458;7.046;2023-02-12T16:06:11;9.30;99.90
5796;DHT22;2924;51.458;7.046;2023-02-12T16:08:43;9.20;99.90
5796;DHT22;2924;51.458;7.046;2023-02-12T16:11:09;9.10;99.90
5796;DHT22;2924;51.458;7.046;2023-02-12T16:13:54;9.00;99.90
5796;DHT22;2924;51.458;7.046;2023-02-12T16:16:26;9.00;99.90
5796;DHT22;2924;51.458;7.046;2023-02-12T16:19:14;8.90;99.90
5796;DHT22;2924;51.458;7.046;2023-02-12T16:21:41;8.80;99.90
5796;DHT22;2924;51.458;7.046;2023-02-12T16:26:46;8.80;99.90
5796;DHT22;2924;51.458;7.046;2023-02-12T16:29:15;8.80;99.90
5796;DHT22;2924;51.458;7.046;2023-02-12T16:31:55;8.80;99.90
5796;DHT22;2924;51.458;7.046;2023-02-12T16:34:36;8.70;99.90
5796;DHT22;2924;51.458;7.046;2023-02-12T16:37:39;8.70;99.90
5796;DHT22;2924;51.458;7.046;2023-02-12T16:43:00;8.60;99.90
5796;DHT22;2924;51.458;7.046;2023-02-12T16:47:51;8.70;99.90
5796;DHT22;2924;51.458;7.046;2023-02-12T16:50:19;8.70;99.90
5796;DHT22;2924;51.458;7.046;2023-02-12T16:52:47;8.70;99.90
5796;DHT22;2924;51.458;7.046;2023-02-12T16:55:15;8.60;99.90
5796;DHT22;2924;51.458;7.046;2023-02-12T16:57:42;8.70;99.90
5796;DHT22;2924;51.458;7.046;2023-02-12T17:00:10;8.70;99.90
5796;DHT22;2924;51.458;7.046;2023-02-12T17:02:36;8.70;99.90
5796;DHT22;2924;51.458;7.046;2023-02-12T17:05:03;8.70;99.90
5796;DHT22;2924;51.458;7.046;2023-02-12T17:07:33;8.70;99.90
5796;DHT22;2924;51.458;7.046;2023-02-12T17:09:59;8.70;99.90
5796;DHT22;2924;51.458;7.046;2023-02-12T17:12:25;8.60;99.90
5796;DHT22;2924;51.458;7.046;2023-02-12T17:14:51;8.60;99.90
5796;DHT22;2924;51.458;7.046;2023-02-12T17:17:17;8.70;99.90
5796;DHT22;2924;51.458;7.046;2023-02-12T17:19:42;8.60;99.90
5796;DHT22;2924;51.458;7.046;2023-02-12T17:22:17;8.60;99.90
5796;DHT22;2924;51.458;7.046;2023-02-12T17:24:44;8.60;99.90
5796;DHT22;2924;51.458;7.046;2023-02-12T17:27:18;8.60;99.90
5796;DHT22;2924;51.458;7.046;2023-02-12T17:29:44;8.50;99.90
5796;DHT22;2924;51.458;7.046;2023-02-12T17:32:11;8.50;99.90
5796;DHT22;2924;51.458;7.046;2023-02-12T17:34:36;8.60;99.90
5796;DHT22;2924;51.458;7.046;2023-02-12T17:37:03;8.60;99.90
5796;DHT22;2924;51.458;7.046;2023-02-12T17:39:29;8.60;99.90
5796;DHT22;2924;51.458;7.046;2023-02-12T17:41:54;8.60;99.90
5796;DHT22;2924;51.458;7.046;2023-02-12T17:44:20;8.60;99.90
5796;DHT22;2924;51.458;7.046;2023-02-12T17:46:46;8.60;99.90
5796;DHT22;2924;51.458;7.046;2023-02-12T17:49:11;8.50;99.90
5796;DHT22;2924;51.458;7.046;2023-02-12T17:51:37;8.60;99.90
5796;DHT22;2924;51.458;7.046;2023-02-12T17:54:03;8.60;99.90
5796;DHT22;2924;51.458;7.046;2023-02-12T17:56:29;8.60;99.90
5796;DHT22;2924;51.458;7.046;2023-02-12T17:58:55;8.60;99.90
5796;DHT22;2924;51.458;7.046;2023-02-12T18:01:22;8.60;99.90
5796;DHT22;2924;51.458;7.046;2023-02-12T18:03:48;8.60;99.90
5796;DHT22;2924;51.458;7.046;2023-02-12T18:06:24;8.50;99.90
5796;DHT22;2924;51.458;7.046;2023-02-12T18:08:50;8.50;99.90
5796;DHT22;2924;51.458;7.046;2023-02-12T18:11:16;8.50;99.90
5796;DHT22;2924;51.458;7.046;2023-02-12T18:13:44;8.50;99.90
5796;DHT22;2924;51.458;7.046;2023-02-12T18:16:10;8.50;99.90
5796;DHT22;2924;51.458;7.046;2023-02-12T18:18:36;8.40;99.90
5796;DHT22;2924;51.458;7.046;2023-02-12T18:21:11;8.40;99.90
5796;DHT22;2924;51.458;7.046;2023-02-12T18:23:37;8.40;99.90
5796;DHT22;2924;51.458;7.046;2023-02-12T18:26:08;8.40;99.90
5796;DHT22;2924;51.458;7.046;2023-02-12T18:28:35;8.40;99.90
5796;DHT22;2924;51.458;7.046;2023-02-12T18:31:01;8.40;99.90
5796;DHT22;2924;51.458;7.046;2023-02-12T18:33:27;8.40;99.90
5796;DHT22;2924;51.458;7.046;2023-02-12T18:35:59;8.40;99.90
5796;DHT22;2924;51.458;7.046;2023-02-12T18:38:25;8.40;99.90
5796;DHT22;2924;51.458;7.046;2023-02-12T18:40:54;8.40;99.90
5796;DHT22;2924;51.458;7.046;2023-02-12T18:43:20;8.40;99.90
5796;DHT22;2924;51.458;7.046;2023-02-12T18:45:47;8.40;99.90
5796;DHT22;2924;51.458;7.046;2023-02-12T18:48:12;8.50;99.90
5796;DHT22;2924;51.458;7.046;2023-02-12T18:50:38;8.50;99.90
5796;DHT22;2924;51.458;7.046;2023-02-12T18:53:04;8.40;99.90
5796;DHT22;2924;51.458;7.046;2023-02-12T18:55:30;8.30;99.90
5796;DHT22;2924;51.458;7.046;2023-02-12T18:57:56;8.40;99.90
5796;DHT22;2924;51.458;7.046;2023-02-12T19:00:24;8.40;99.90
5796;DHT22;2924;51.458;7.046;2023-02-12T19:02:50;8.30;99.90
5796;DHT22;2924;51.458;7.046;2023-02-12T19:05:16;8.30;99.90
5796;DHT22;2924;51.458;7.046;2023-02-12T19:07:41;8.40;99.90
5796;DHT22;2924;51.458;7.046;2023-02-12T19:10:07;8.30;99.90
5796;DHT22;2924;51.458;7.046;2023-02-12T19:12:33;8.20;99.90
5796;DHT22;2924;51.458;7.046;2023-02-12T19:14:59;8.20;99.90
5796;DHT22;2924;51.458;7.046;2023-02-12T19:17:24;8.20;99.90
5796;DHT22;2924;51.458;7.046;2023-02-12T19:19:50;8.20;99.90
5796;DHT22;2924;51.458;7.046;2023-02-12T19:22:17;8.20;99.90
5796;DHT22;2924;51.458;7.046;2023-02-12T19:24:42;8.20;99.90